sensor_id;sensor_type;location;lat;lon;timestamp;P1;durP1;ratioP1;P2;durP2;ratioP2
34035;SDS011;63481;52.588;22.472;2023-06-14T00:00:02;14.00;;;7.20;;
34035;SDS011;63481;52.588;22.472;2023-06-14T00:01:17;11.50;;;7.10;;
34035;SDS011;63481;52.588;22.472;2023-06-14T00:02:12;12.90;;;7.30;;
34035;SDS011;63481;52.588;22.472;2023-06-14T00:03:05;10.30;;;6.70;;
34035;SDS011;63481;52.588;22.472;2023-06-14T00:03:57;10.10;;;6.70;;
34035;SDS011;63481;52.588;22.472;2023-06-14T00:04:51;12.30;;;7.10;;
34035;SDS011;63481;52.588;22.472;2023-06-14T00:05:44;15.80;;;7.30;;
34035;SDS011;63481;52.588;22.472;2023-06-14T00:06:39;15.40;;;7.60;;
34035;SDS011;63481;52.588;22.472;2023-06-14T00:07:37;11.30;;;6.70;;
34035;SDS011;63481;52.588;22.472;2023-06-14T00:08:36;12.00;;;7.20;;
34035;SDS011;63481;52.588;22.472;2023-06-14T00:09:29;12.20;;;6.90;;
34035;SDS011;63481;52.588;22.472;2023-06-14T00:10:22;12.80;;;7.00;;
34035;SDS011;63481;52.588;22.472;2023-06-14T00:11:15;11.50;;;6.40;;
34035;SDS011;63481;52.588;22.472;2023-06-14T00:12:08;12.10;;;7.20;;
34035;SDS011;63481;52.588;22.472;2023-06-14T00:13:03;10.60;;;7.10;;
34035;SDS011;63481;52.588;22.472;2023-06-14T00:13:57;11.00;;;7.00;;
34035;SDS011;63481;52.588;22.472;2023-06-14T00:14:49;11.30;;;7.20;;
34035;SDS011;63481;52.588;22.472;2023-06-14T00:15:42;10.70;;;7.20;;
34035;SDS011;63481;52.588;22.472;2023-06-14T00:16:35;15.10;;;7.40;;
34035;SDS011;63481;52.588;22.472;2023-06-14T00:17:29;13.10;;;7.40;;
34035;SDS011;63481;52.588;22.472;2023-06-14T00:18:22;12.00;;;7.50;;
34035;SDS011;63481;52.588;22.472;2023-06-14T00:19:21;12.90;;;7.20;;
34035;SDS011;63481;52.588;22.472;2023-06-14T00:20:14;15.70;;;7.60;;
34035;SDS011;63481;52.588;22.472;2023-06-14T00:21:06;11.20;;;7.30;;
34035;SDS011;63481;52.588;22.472;2023-06-14T00:21:59;12.50;;;7.50;;
34035;SDS011;63481;52.588;22.472;2023-06-14T00:22:52;14.80;;;8.40;;
34035;SDS011;63481;52.588;22.472;2023-06-14T00:23:45;13.20;;;7.90;;
34035;SDS011;63481;52.588;22.472;2023-06-14T00:24:38;15.30;;;7.20;;
34035;SDS011;63481;52.588;22.472;2023-06-14T00:25:31;13.90;;;8.00;;
34035;SDS011;63481;52.588;22.472;2023-06-14T00:26:23;17.10;;;7.70;;
34035;SDS011;63481;52.588;22.472;2023-06-14T00:27:18;13.70;;;8.10;;
34035;SDS011;63481;52.588;22.472;2023-06-14T00:28:11;13.30;;;8.40;;
34035;SDS011;63481;52.588;22.472;2023-06-14T00:29:03;13.70;;;7.50;;
34035;SDS011;63481;52.588;22.472;2023-06-14T00:29:56;11.70;;;8.10;;
34035;SDS011;63481;52.588;22.472;2023-06-14T00:30:52;11.70;;;7.10;;
34035;SDS011;63481;52.588;22.472;2023-06-14T00:31:45;14.60;;;7.70;;
34035;SDS011;63481;52.588;22.472;2023-06-14T00:32:37;16.10;;;8.90;;
34035;SDS011;63481;52.588;22.472;2023-06-14T00:33:30;15.50;;;7.50;;
34035;SDS011;63481;52.588;22.472;2023-06-14T00:34:23;18.20;;;7.80;;
34035;SDS011;63481;52.588;22.472;2023-06-14T00:35:15;16.80;;;9.00;;
34035;SDS011;63481;52.588;22.472;2023-06-14T00:36:08;17.60;;;7.80;;
34035;SDS011;63481;52.588;22.472;2023-06-14T00:37:01;12.50;;;7.60;;
34035;SDS011;63481;52.588;22.472;2023-06-14T00:37:54;12.00;;;7.90;;
34035;SDS011;63481;52.588;22.472;2023-06-14T00:38:47;12.60;;;7.80;;
34035;SDS011;63481;52.588;22.472;2023-06-14T00:39:39;15.30;;;8.40;;
34035;SDS011;63481;52.588;22.472;2023-06-14T00:40:32;13.00;;;8.00;;
34035;SDS011;63481;52.588;22.472;2023-06-14T00:41:26;14.20;;;8.70;;
34035;SDS011;63481;52.588;22.472;2023-06-14T00:42:25;13.40;;;8.00;;
34035;SDS011;63481;52.588;22.472;2023-06-14T00:43:19;13.50;;;8.10;;
34035;SDS011;63481;52.588;22.472;2023-06-14T00:44:12;12.70;;;7.20;;
34035;SDS011;63481;52.588;22.472;2023-06-14T00:45:08;16.40;;;8.00;;
34035;SDS011;63481;52.588;22.472;2023-06-14T00:46:01;12.30;;;7.90;;
34035;SDS011;63481;52.588;22.472;2023-06-14T00:46:54;17.40;;;8.10;;
34035;SDS011;63481;52.588;22.472;2023-06-14T00:47:49;13.10;;;8.60;;
34035;SDS011;63481;52.588;22.472;2023-06-14T00:48:45;14.40;;;8.40;;
34035;SDS011;63481;52.588;22.472;2023-06-14T00:49:38;13.80;;;8.30;;
34035;SDS011;63481;52.588;22.472;2023-06-14T00:50:30;16.20;;;8.40;;
34035;SDS011;63481;52.588;22.472;2023-06-14T00:51:25;16.70;;;8.90;;
34035;SDS011;63481;52.588;22.472;2023-06-14T00:52:18;15.10;;;8.90;;
34035;SDS011;63481;52.588;22.472;2023-06-14T00:53:12;16.70;;;9.00;;
34035;SDS011;63481;52.588;22.472;2023-06-14T00:54:07;16.40;;;8.80;;
34035;SDS011;63481;52.588;22.472;2023-06-14T00:55:03;15.50;;;8.70;;
34035;SDS011;63481;52.588;22.472;2023-06-14T00:55:55;15.60;;;9.30;;
34035;SDS011;63481;52.588;22.472;2023-06-14T00:56:49;13.70;;;9.00;;
34035;SDS011;63481;52.588;22.472;2023-06-14T00:57:42;14.20;;;9.00;;
34035;SDS011;63481;52.588;22.472;2023-06-14T00:58:34;14.10;;;9.50;;
34035;SDS011;63481;52.588;22.472;2023-06-14T00:59:27;14.30;;;9.40;;
34035;SDS011;63481;52.588;22.472;2023-06-14T01:00:20;30.20;;;9.70;;
34035;SDS011;63481;52.588;22.472;2023-06-14T01:01:12;17.00;;;9.10;;
34035;SDS011;63481;52.588;22.472;2023-06-14T01:02:06;16.10;;;8.90;;
34035;SDS011;63481;52.588;22.472;2023-06-14T01:02:59;15.30;;;9.20;;
34035;SDS011;63481;52.588;22.472;2023-06-14T01:03:51;12.00;;;8.70;;
34035;SDS011;63481;52.588;22.472;2023-06-14T01:04:46;12.60;;;9.30;;
34035;SDS011;63481;52.588;22.472;2023-06-14T01:05:41;13.80;;;8.80;;
34035;SDS011;63481;52.588;22.472;2023-06-14T01:06:59;19.90;;;9.30;;
34035;SDS011;63481;52.588;22.472;2023-06-14T01:10:16;13.20;;;8.50;;
34035;SDS011;63481;52.588;22.472;2023-06-14T01:11:39;19.00;;;8.80;;
34035;SDS011;63481;52.588;22.472;2023-06-14T01:14:05;17.60;;;8.70;;
34035;SDS011;63481;52.588;22.472;2023-06-14T01:15:00;15.50;;;8.70;;
34035;SDS011;63481;52.588;22.472;2023-06-14T01:15:54;14.80;;;9.00;;
34035;SDS011;63481;52.588;22.472;2023-06-14T01:16:48;13.30;;;8.50;;
34035;SDS011;63481;52.588;22.472;2023-06-14T01:17:48;14.90;;;8.50;;
34035;SDS011;63481;52.588;22.472;2023-06-14T01:18:43;15.00;;;8.50;;
34035;SDS011;63481;52.588;22.472;2023-06-14T01:19:41;13.60;;;8.60;;
34035;SDS011;63481;52.588;22.472;2023-06-14T01:20:35;15.00;;;9.00;;
34035;SDS011;63481;52.588;22.472;2023-06-14T01:21:30;14.30;;;9.10;;
34035;SDS011;63481;52.588;22.472;2023-06-14T01:22:23;14.80;;;9.40;;
34035;SDS011;63481;52.588;22.472;2023-06-14T01:23:21;16.90;;;9.10;;
34035;SDS011;63481;52.588;22.472;2023-06-14T01:24:15;15.00;;;9.00;;
34035;SDS011;63481;52.588;22.472;2023-06-14T01:25:08;17.40;;;9.10;;
34035;SDS011;63481;52.588;22.472;2023-06-14T01:26:01;16.70;;;9.70;;
34035;SDS011;63481;52.588;22.472;2023-06-14T01:26:57;14.70;;;9.30;;
34035;SDS011;63481;52.588;22.472;2023-06-14T01:28:00;15.30;;;9.20;;
34035;SDS011;63481;52.588;22.472;2023-06-14T01:28:55;19.70;;;8.50;;
34035;SDS011;63481;52.588;22.472;2023-06-14T01:29:51;11.80;;;8.60;;
34035;SDS011;63481;52.588;22.472;2023-06-14T01:30:50;13.80;;;8.80;;
34035;SDS011;63481;52.588;22.472;2023-06-14T01:31:47;17.80;;;9.20;;
34035;SDS011;63481;52.588;22.472;2023-06-14T01:32:41;13.60;;;8.70;;
34035;SDS011;63481;52.588;22.472;2023-06-14T01:33:34;14.80;;;8.10;;
34035;SDS011;63481;52.588;22.472;2023-06-14T01:34:28;12.80;;;8.20;;
34035;SDS011;63481;52.588;22.472;2023-06-14T01:35:21;14.70;;;9.00;;
34035;SDS011;63481;52.588;22.472;2023-06-14T01:36:14;15.80;;;9.00;;
34035;SDS011;63481;52.588;22.472;2023-06-14T01:37:08;12.50;;;8.10;;
34035;SDS011;63481;52.588;22.472;2023-06-14T01:38:02;12.60;;;8.10;;
34035;SDS011;63481;52.588;22.472;2023-06-14T01:38:58;11.80;;;8.30;;
34035;SDS011;63481;52.588;22.472;2023-06-14T01:39:53;14.40;;;8.20;;
34035;SDS011;63481;52.588;22.472;2023-06-14T01:40:46;14.10;;;8.20;;
34035;SDS011;63481;52.588;22.472;2023-06-14T01:41:41;16.30;;;8.20;;
34035;SDS011;63481;52.588;22.472;2023-06-14T01:42:36;15.80;;;8.80;;
34035;SDS011;63481;52.588;22.472;2023-06-14T01:43:30;14.00;;;8.50;;
34035;SDS011;63481;52.588;22.472;2023-06-14T01:44:23;15.10;;;8.50;;
34035;SDS011;63481;52.588;22.472;2023-06-14T01:45:17;13.70;;;8.30;;
34035;SDS011;63481;52.588;22.472;2023-06-14T01:46:12;14.10;;;8.40;;
34035;SDS011;63481;52.588;22.472;2023-06-14T01:47:06;13.20;;;8.20;;
34035;SDS011;63481;52.588;22.472;2023-06-14T01:48:00;14.00;;;8.60;;
34035;SDS011;63481;52.588;22.472;2023-06-14T01:48:53;13.60;;;8.20;;
34035;SDS011;63481;52.588;22.472;2023-06-14T01:49:46;13.40;;;8.50;;
34035;SDS011;63481;52.588;22.472;2023-06-14T01:50:39;14.10;;;8.40;;
34035;SDS011;63481;52.588;22.472;2023-06-14T01:51:32;13.20;;;7.80;;
34035;SDS011;63481;52.588;22.472;2023-06-14T01:52:24;16.10;;;8.60;;
34035;SDS011;63481;52.588;22.472;2023-06-14T01:53:17;13.70;;;8.10;;
34035;SDS011;63481;52.588;22.472;2023-06-14T01:54:10;13.30;;;8.40;;
34035;SDS011;63481;52.588;22.472;2023-06-14T01:55:05;14.30;;;9.00;;
34035;SDS011;63481;52.588;22.472;2023-06-14T01:55:58;13.30;;;8.80;;
34035;SDS011;63481;52.588;22.472;2023-06-14T01:56:51;16.30;;;8.20;;
34035;SDS011;63481;52.588;22.472;2023-06-14T01:57:44;14.90;;;8.50;;
34035;SDS011;63481;52.588;22.472;2023-06-14T01:58:37;15.00;;;8.70;;
34035;SDS011;63481;52.588;22.472;2023-06-14T01:59:30;12.00;;;7.90;;
34035;SDS011;63481;52.588;22.472;2023-06-14T02:00:23;13.90;;;8.20;;
34035;SDS011;63481;52.588;22.472;2023-06-14T02:01:18;12.40;;;7.40;;
34035;SDS011;63481;52.588;22.472;2023-06-14T02:02:11;16.90;;;8.50;;
34035;SDS011;63481;52.588;22.472;2023-06-14T02:03:03;15.40;;;8.90;;
34035;SDS011;63481;52.588;22.472;2023-06-14T02:03:56;13.70;;;8.20;;
34035;SDS011;63481;52.588;22.472;2023-06-14T02:04:49;13.30;;;8.30;;
34035;SDS011;63481;52.588;22.472;2023-06-14T02:05:42;13.30;;;8.00;;
34035;SDS011;63481;52.588;22.472;2023-06-14T02:06:35;15.80;;;8.60;;
34035;SDS011;63481;52.588;22.472;2023-06-14T02:07:28;14.40;;;8.10;;
34035;SDS011;63481;52.588;22.472;2023-06-14T02:08:20;15.40;;;8.60;;
34035;SDS011;63481;52.588;22.472;2023-06-14T02:09:13;14.90;;;8.20;;
34035;SDS011;63481;52.588;22.472;2023-06-14T02:10:06;15.40;;;8.50;;
34035;SDS011;63481;52.588;22.472;2023-06-14T02:10:59;13.70;;;8.00;;
34035;SDS011;63481;52.588;22.472;2023-06-14T02:11:52;12.80;;;8.70;;
34035;SDS011;63481;52.588;22.472;2023-06-14T02:12:45;14.50;;;8.50;;
34035;SDS011;63481;52.588;22.472;2023-06-14T02:13:40;12.50;;;8.40;;
34035;SDS011;63481;52.588;22.472;2023-06-14T02:14:33;13.50;;;8.70;;
34035;SDS011;63481;52.588;22.472;2023-06-14T02:15:26;12.20;;;8.30;;
34035;SDS011;63481;52.588;22.472;2023-06-14T02:16:26;16.20;;;9.10;;
34035;SDS011;63481;52.588;22.472;2023-06-14T02:17:20;14.90;;;8.70;;
34035;SDS011;63481;52.588;22.472;2023-06-14T02:18:13;15.10;;;8.30;;
34035;SDS011;63481;52.588;22.472;2023-06-14T02:19:06;14.30;;;8.70;;
34035;SDS011;63481;52.588;22.472;2023-06-14T02:19:59;13.80;;;7.70;;
34035;SDS011;63481;52.588;22.472;2023-06-14T02:20:52;16.10;;;8.50;;
34035;SDS011;63481;52.588;22.472;2023-06-14T02:21:44;13.70;;;8.50;;
34035;SDS011;63481;52.588;22.472;2023-06-14T02:22:38;14.20;;;8.50;;
34035;SDS011;63481;52.588;22.472;2023-06-14T02:23:33;16.30;;;8.10;;
34035;SDS011;63481;52.588;22.472;2023-06-14T02:24:25;13.00;;;8.90;;
34035;SDS011;63481;52.588;22.472;2023-06-14T02:25:18;17.50;;;8.40;;
34035;SDS011;63481;52.588;22.472;2023-06-14T02:26:11;14.70;;;8.60;;
34035;SDS011;63481;52.588;22.472;2023-06-14T02:27:04;14.40;;;8.40;;
34035;SDS011;63481;52.588;22.472;2023-06-14T02:27:57;14.40;;;8.40;;
34035;SDS011;63481;52.588;22.472;2023-06-14T02:28:50;19.30;;;8.80;;
34035;SDS011;63481;52.588;22.472;2023-06-14T02:29:42;12.40;;;8.00;;
34035;SDS011;63481;52.588;22.472;2023-06-14T02:30:35;16.20;;;8.70;;
34035;SDS011;63481;52.588;22.472;2023-06-14T02:31:28;16.80;;;8.00;;
34035;SDS011;63481;52.588;22.472;2023-06-14T02:32:21;15.40;;;9.20;;
34035;SDS011;63481;52.588;22.472;2023-06-14T02:33:14;13.60;;;8.30;;
34035;SDS011;63481;52.588;22.472;2023-06-14T02:34:07;12.20;;;8.00;;
34035;SDS011;63481;52.588;22.472;2023-06-14T02:35:02;15.90;;;8.50;;
34035;SDS011;63481;52.588;22.472;2023-06-14T02:35:55;13.10;;;8.90;;
34035;SDS011;63481;52.588;22.472;2023-06-14T02:36:48;12.70;;;8.10;;
34035;SDS011;63481;52.588;22.472;2023-06-14T02:37:42;13.40;;;8.50;;
34035;SDS011;63481;52.588;22.472;2023-06-14T02:38:35;16.00;;;8.80;;
34035;SDS011;63481;52.588;22.472;2023-06-14T02:39:27;12.70;;;8.80;;
34035;SDS011;63481;52.588;22.472;2023-06-14T02:40:20;14.90;;;9.10;;
34035;SDS011;63481;52.588;22.472;2023-06-14T02:41:13;12.00;;;7.90;;
34035;SDS011;63481;52.588;22.472;2023-06-14T02:42:06;14.20;;;8.80;;
34035;SDS011;63481;52.588;22.472;2023-06-14T02:42:59;14.20;;;8.10;;
34035;SDS011;63481;52.588;22.472;2023-06-14T02:43:52;14.10;;;8.50;;
34035;SDS011;63481;52.588;22.472;2023-06-14T02:44:45;17.00;;;9.10;;
34035;SDS011;63481;52.588;22.472;2023-06-14T02:45:43;13.50;;;8.10;;
34035;SDS011;63481;52.588;22.472;2023-06-14T02:46:35;13.30;;;8.50;;
34035;SDS011;63481;52.588;22.472;2023-06-14T02:47:28;13.50;;;8.50;;
34035;SDS011;63481;52.588;22.472;2023-06-14T02:48:22;12.90;;;8.50;;
34035;SDS011;63481;52.588;22.472;2023-06-14T02:49:15;17.30;;;8.50;;
34035;SDS011;63481;52.588;22.472;2023-06-14T02:50:07;16.50;;;8.00;;
34035;SDS011;63481;52.588;22.472;2023-06-14T02:51:00;13.60;;;9.00;;
34035;SDS011;63481;52.588;22.472;2023-06-14T02:51:53;14.80;;;8.20;;
34035;SDS011;63481;52.588;22.472;2023-06-14T02:52:46;13.20;;;7.90;;
34035;SDS011;63481;52.588;22.472;2023-06-14T02:53:40;15.80;;;8.20;;
34035;SDS011;63481;52.588;22.472;2023-06-14T02:54:33;13.50;;;8.30;;
34035;SDS011;63481;52.588;22.472;2023-06-14T02:55:26;16.30;;;8.80;;
34035;SDS011;63481;52.588;22.472;2023-06-14T02:56:19;14.30;;;8.30;;
34035;SDS011;63481;52.588;22.472;2023-06-14T02:57:12;14.20;;;9.00;;
34035;SDS011;63481;52.588;22.472;2023-06-14T02:58:05;14.40;;;8.70;;
34035;SDS011;63481;52.588;22.472;2023-06-14T02:58:58;15.50;;;8.90;;
34035;SDS011;63481;52.588;22.472;2023-06-14T02:59:52;12.90;;;8.60;;
34035;SDS011;63481;52.588;22.472;2023-06-14T03:00:45;13.80;;;8.10;;
34035;SDS011;63481;52.588;22.472;2023-06-14T03:01:39;13.80;;;8.70;;
34035;SDS011;63481;52.588;22.472;2023-06-14T03:02:34;17.50;;;9.00;;
34035;SDS011;63481;52.588;22.472;2023-06-14T03:03:26;18.80;;;9.50;;
34035;SDS011;63481;52.588;22.472;2023-06-14T03:04:20;16.80;;;9.70;;
34035;SDS011;63481;52.588;22.472;2023-06-14T03:05:13;14.00;;;9.70;;
34035;SDS011;63481;52.588;22.472;2023-06-14T03:06:06;13.60;;;9.30;;
34035;SDS011;63481;52.588;22.472;2023-06-14T03:07:02;16.20;;;9.40;;
34035;SDS011;63481;52.588;22.472;2023-06-14T03:08:01;16.60;;;9.50;;
34035;SDS011;63481;52.588;22.472;2023-06-14T03:08:55;16.60;;;9.90;;
34035;SDS011;63481;52.588;22.472;2023-06-14T03:09:52;15.40;;;9.40;;
34035;SDS011;63481;52.588;22.472;2023-06-14T03:10:47;14.60;;;9.80;;
34035;SDS011;63481;52.588;22.472;2023-06-14T03:11:40;14.50;;;9.40;;
34035;SDS011;63481;52.588;22.472;2023-06-14T03:12:34;17.30;;;9.90;;
34035;SDS011;63481;52.588;22.472;2023-06-14T03:13:28;13.80;;;10.20;;
34035;SDS011;63481;52.588;22.472;2023-06-14T03:14:24;17.40;;;9.50;;
34035;SDS011;63481;52.588;22.472;2023-06-14T03:15:17;13.50;;;9.30;;
34035;SDS011;63481;52.588;22.472;2023-06-14T03:16:12;14.50;;;9.20;;
34035;SDS011;63481;52.588;22.472;2023-06-14T03:17:05;14.30;;;9.30;;
34035;SDS011;63481;52.588;22.472;2023-06-14T03:18:00;18.40;;;8.80;;
34035;SDS011;63481;52.588;22.472;2023-06-14T03:18:53;16.90;;;9.30;;
34035;SDS011;63481;52.588;22.472;2023-06-14T03:19:46;14.00;;;9.40;;
34035;SDS011;63481;52.588;22.472;2023-06-14T03:20:39;14.10;;;9.60;;
34035;SDS011;63481;52.588;22.472;2023-06-14T03:21:33;14.40;;;9.60;;
34035;SDS011;63481;52.588;22.472;2023-06-14T03:22:28;18.30;;;10.00;;
34035;SDS011;63481;52.588;22.472;2023-06-14T03:23:21;15.80;;;9.40;;
34035;SDS011;63481;52.588;22.472;2023-06-14T03:24:14;16.20;;;9.20;;
34035;SDS011;63481;52.588;22.472;2023-06-14T03:25:09;15.30;;;9.90;;
34035;SDS011;63481;52.588;22.472;2023-06-14T03:26:03;16.50;;;9.70;;
34035;SDS011;63481;52.588;22.472;2023-06-14T03:26:56;17.30;;;9.70;;
34035;SDS011;63481;52.588;22.472;2023-06-14T03:27:49;13.00;;;9.40;;
34035;SDS011;63481;52.588;22.472;2023-06-14T03:28:43;13.80;;;9.40;;
34035;SDS011;63481;52.588;22.472;2023-06-14T03:29:38;14.00;;;9.10;;
34035;SDS011;63481;52.588;22.472;2023-06-14T03:30:32;16.00;;;9.10;;
34035;SDS011;63481;52.588;22.472;2023-06-14T03:31:28;13.60;;;9.30;;
34035;SDS011;63481;52.588;22.472;2023-06-14T03:32:25;14.00;;;9.10;;
34035;SDS011;63481;52.588;22.472;2023-06-14T03:33:18;16.80;;;9.70;;
34035;SDS011;63481;52.588;22.472;2023-06-14T03:34:11;15.40;;;8.90;;
34035;SDS011;63481;52.588;22.472;2023-06-14T03:35:04;14.40;;;9.80;;
34035;SDS011;63481;52.588;22.472;2023-06-14T03:35:58;14.60;;;10.50;;
34035;SDS011;63481;52.588;22.472;2023-06-14T03:36:52;14.60;;;10.20;;
34035;SDS011;63481;52.588;22.472;2023-06-14T03:37:46;14.10;;;10.50;;
34035;SDS011;63481;52.588;22.472;2023-06-14T03:38:39;16.50;;;10.50;;
34035;SDS011;63481;52.588;22.472;2023-06-14T03:39:32;15.90;;;9.80;;
34035;SDS011;63481;52.588;22.472;2023-06-14T03:40:25;17.70;;;10.70;;
34035;SDS011;63481;52.588;22.472;2023-06-14T03:41:19;14.30;;;10.30;;
34035;SDS011;63481;52.588;22.472;2023-06-14T03:42:13;14.30;;;9.60;;
34035;SDS011;63481;52.588;22.472;2023-06-14T03:43:07;17.90;;;10.00;;
34035;SDS011;63481;52.588;22.472;2023-06-14T03:44:00;17.10;;;9.80;;
34035;SDS011;63481;52.588;22.472;2023-06-14T03:44:52;14.70;;;9.90;;
34035;SDS011;63481;52.588;22.472;2023-06-14T03:45:46;19.40;;;9.70;;
34035;SDS011;63481;52.588;22.472;2023-06-14T03:46:39;18.50;;;9.70;;
34035;SDS011;63481;52.588;22.472;2023-06-14T03:47:33;16.70;;;9.40;;
34035;SDS011;63481;52.588;22.472;2023-06-14T03:48:26;13.40;;;9.40;;
34035;SDS011;63481;52.588;22.472;2023-06-14T03:49:19;13.20;;;8.90;;
34035;SDS011;63481;52.588;22.472;2023-06-14T03:50:12;16.80;;;9.90;;
34035;SDS011;63481;52.588;22.472;2023-06-14T03:51:05;14.80;;;9.30;;
34035;SDS011;63481;52.588;22.472;2023-06-14T03:51:59;17.20;;;10.10;;
34035;SDS011;63481;52.588;22.472;2023-06-14T03:52:53;16.40;;;9.80;;
34035;SDS011;63481;52.588;22.472;2023-06-14T03:53:46;19.40;;;9.40;;
34035;SDS011;63481;52.588;22.472;2023-06-14T03:54:39;16.80;;;9.30;;
34035;SDS011;63481;52.588;22.472;2023-06-14T03:55:32;15.70;;;9.40;;
34035;SDS011;63481;52.588;22.472;2023-06-14T03:56:25;12.30;;;9.00;;
34035;SDS011;63481;52.588;22.472;2023-06-14T03:57:19;21.10;;;9.60;;
34035;SDS011;63481;52.588;22.472;2023-06-14T03:58:13;14.70;;;9.80;;
34035;SDS011;63481;52.588;22.472;2023-06-14T03:59:07;14.00;;;9.80;;
34035;SDS011;63481;52.588;22.472;2023-06-14T03:59:59;14.10;;;9.70;;
34035;SDS011;63481;52.588;22.472;2023-06-14T04:00:52;21.50;;;10.20;;
34035;SDS011;63481;52.588;22.472;2023-06-14T04:01:45;15.10;;;9.90;;
34035;SDS011;63481;52.588;22.472;2023-06-14T04:02:40;13.80;;;9.90;;
34035;SDS011;63481;52.588;22.472;2023-06-14T04:03:34;16.60;;;10.40;;
34035;SDS011;63481;52.588;22.472;2023-06-14T04:04:27;16.60;;;9.40;;
34035;SDS011;63481;52.588;22.472;2023-06-14T04:05:21;13.40;;;9.10;;
34035;SDS011;63481;52.588;22.472;2023-06-14T04:06:17;15.80;;;9.40;;
34035;SDS011;63481;52.588;22.472;2023-06-14T04:07:12;16.90;;;10.10;;
34035;SDS011;63481;52.588;22.472;2023-06-14T04:08:05;17.80;;;10.60;;
34035;SDS011;63481;52.588;22.472;2023-06-14T04:09:01;14.70;;;9.30;;
34035;SDS011;63481;52.588;22.472;2023-06-14T04:09:55;15.10;;;9.10;;
34035;SDS011;63481;52.588;22.472;2023-06-14T04:10:48;16.40;;;9.80;;
34035;SDS011;63481;52.588;22.472;2023-06-14T04:11:40;14.00;;;9.70;;
34035;SDS011;63481;52.588;22.472;2023-06-14T04:12:34;16.90;;;10.00;;
34035;SDS011;63481;52.588;22.472;2023-06-14T04:13:27;14.90;;;10.30;;
34035;SDS011;63481;52.588;22.472;2023-06-14T04:14:19;18.20;;;10.30;;
34035;SDS011;63481;52.588;22.472;2023-06-14T04:15:12;13.70;;;10.00;;
34035;SDS011;63481;52.588;22.472;2023-06-14T04:16:06;14.00;;;10.10;;
34035;SDS011;63481;52.588;22.472;2023-06-14T04:17:02;15.80;;;10.00;;
34035;SDS011;63481;52.588;22.472;2023-06-14T04:17:54;16.20;;;10.00;;
34035;SDS011;63481;52.588;22.472;2023-06-14T04:18:50;14.50;;;10.30;;
34035;SDS011;63481;52.588;22.472;2023-06-14T04:19:44;18.90;;;10.80;;
34035;SDS011;63481;52.588;22.472;2023-06-14T04:20:37;17.10;;;11.00;;
34035;SDS011;63481;52.588;22.472;2023-06-14T04:21:30;15.30;;;10.50;;
34035;SDS011;63481;52.588;22.472;2023-06-14T04:22:28;14.90;;;10.00;;
34035;SDS011;63481;52.588;22.472;2023-06-14T04:23:22;21.20;;;10.50;;
34035;SDS011;63481;52.588;22.472;2023-06-14T04:24:15;16.50;;;10.60;;
34035;SDS011;63481;52.588;22.472;2023-06-14T04:25:10;16.00;;;10.70;;
34035;SDS011;63481;52.588;22.472;2023-06-14T04:26:04;16.50;;;11.30;;
34035;SDS011;63481;52.588;22.472;2023-06-14T04:26:57;17.10;;;10.80;;
34035;SDS011;63481;52.588;22.472;2023-06-14T04:27:51;17.80;;;10.70;;
34035;SDS011;63481;52.588;22.472;2023-06-14T04:28:44;16.50;;;10.50;;
34035;SDS011;63481;52.588;22.472;2023-06-14T04:29:37;13.60;;;9.70;;
34035;SDS011;63481;52.588;22.472;2023-06-14T04:30:34;20.50;;;10.60;;
34035;SDS011;63481;52.588;22.472;2023-06-14T04:31:29;16.40;;;11.50;;
34035;SDS011;63481;52.588;22.472;2023-06-14T04:32:26;18.20;;;11.20;;
34035;SDS011;63481;52.588;22.472;2023-06-14T04:33:19;17.60;;;10.10;;
34035;SDS011;63481;52.588;22.472;2023-06-14T04:34:12;15.50;;;9.50;;
34035;SDS011;63481;52.588;22.472;2023-06-14T04:35:18;16.80;;;9.90;;
34035;SDS011;63481;52.588;22.472;2023-06-14T04:36:13;15.20;;;10.20;;
34035;SDS011;63481;52.588;22.472;2023-06-14T04:37:06;15.20;;;10.50;;
34035;SDS011;63481;52.588;22.472;2023-06-14T04:38:07;17.10;;;10.20;;
34035;SDS011;63481;52.588;22.472;2023-06-14T04:39:01;13.40;;;9.20;;
34035;SDS011;63481;52.588;22.472;2023-06-14T04:39:56;15.10;;;10.10;;
34035;SDS011;63481;52.588;22.472;2023-06-14T04:40:49;16.00;;;10.30;;
34035;SDS011;63481;52.588;22.472;2023-06-14T04:41:45;17.70;;;10.40;;
34035;SDS011;63481;52.588;22.472;2023-06-14T04:42:39;15.60;;;10.30;;
34035;SDS011;63481;52.588;22.472;2023-06-14T04:43:34;15.20;;;10.40;;
34035;SDS011;63481;52.588;22.472;2023-06-14T04:44:30;15.10;;;9.80;;
34035;SDS011;63481;52.588;22.472;2023-06-14T04:45:26;18.00;;;10.10;;
34035;SDS011;63481;52.588;22.472;2023-06-14T04:46:25;13.10;;;9.90;;
34035;SDS011;63481;52.588;22.472;2023-06-14T04:47:21;15.40;;;10.10;;
34035;SDS011;63481;52.588;22.472;2023-06-14T04:48:14;15.60;;;9.70;;
34035;SDS011;63481;52.588;22.472;2023-06-14T04:49:07;15.60;;;9.70;;
34035;SDS011;63481;52.588;22.472;2023-06-14T04:50:00;19.10;;;9.10;;
34035;SDS011;63481;52.588;22.472;2023-06-14T04:50:56;13.60;;;9.30;;
34035;SDS011;63481;52.588;22.472;2023-06-14T04:51:49;15.00;;;9.50;;
34035;SDS011;63481;52.588;22.472;2023-06-14T04:53:43;15.70;;;9.20;;
34035;SDS011;63481;52.588;22.472;2023-06-14T04:54:37;15.70;;;9.70;;
34035;SDS011;63481;52.588;22.472;2023-06-14T04:55:30;20.70;;;9.90;;
34035;SDS011;63481;52.588;22.472;2023-06-14T04:56:25;16.60;;;9.70;;
34035;SDS011;63481;52.588;22.472;2023-06-14T04:57:18;16.20;;;10.00;;
34035;SDS011;63481;52.588;22.472;2023-06-14T04:58:15;14.70;;;10.30;;
34035;SDS011;63481;52.588;22.472;2023-06-14T04:59:08;21.30;;;11.00;;
34035;SDS011;63481;52.588;22.472;2023-06-14T05:00:05;13.90;;;9.30;;
34035;SDS011;63481;52.588;22.472;2023-06-14T05:00:59;15.20;;;9.60;;
34035;SDS011;63481;52.588;22.472;2023-06-14T05:01:53;14.40;;;10.10;;
34035;SDS011;63481;52.588;22.472;2023-06-14T05:02:49;16.60;;;9.70;;
34035;SDS011;63481;52.588;22.472;2023-06-14T05:03:43;14.70;;;10.10;;
34035;SDS011;63481;52.588;22.472;2023-06-14T05:04:37;15.90;;;10.00;;
34035;SDS011;63481;52.588;22.472;2023-06-14T05:05:34;17.40;;;10.90;;
34035;SDS011;63481;52.588;22.472;2023-06-14T05:06:28;16.40;;;9.60;;
34035;SDS011;63481;52.588;22.472;2023-06-14T05:07:21;16.20;;;10.70;;
34035;SDS011;63481;52.588;22.472;2023-06-14T05:08:17;17.70;;;11.00;;
34035;SDS011;63481;52.588;22.472;2023-06-14T05:09:12;15.60;;;10.10;;
34035;SDS011;63481;52.588;22.472;2023-06-14T05:10:06;16.80;;;11.20;;
34035;SDS011;63481;52.588;22.472;2023-06-14T05:10:59;19.30;;;12.10;;
34035;SDS011;63481;52.588;22.472;2023-06-14T05:11:52;16.50;;;11.70;;
34035;SDS011;63481;52.588;22.472;2023-06-14T05:12:45;17.90;;;11.30;;
34035;SDS011;63481;52.588;22.472;2023-06-14T05:13:39;20.40;;;11.50;;
34035;SDS011;63481;52.588;22.472;2023-06-14T05:14:32;15.90;;;11.70;;
34035;SDS011;63481;52.588;22.472;2023-06-14T05:15:25;17.60;;;11.00;;
34035;SDS011;63481;52.588;22.472;2023-06-14T05:16:18;16.80;;;10.50;;
34035;SDS011;63481;52.588;22.472;2023-06-14T05:17:12;14.70;;;10.80;;
34035;SDS011;63481;52.588;22.472;2023-06-14T05:18:05;19.40;;;11.90;;
34035;SDS011;63481;52.588;22.472;2023-06-14T05:19:00;17.20;;;11.20;;
34035;SDS011;63481;52.588;22.472;2023-06-14T05:19:54;19.10;;;11.30;;